sensor_id;sensor_type;location;lat;lon;timestamp;temperature;humidity
2929;DHT22;1474;51.460;7.150;2023-04-03T00:00:32;2.10;99.90
2929;DHT22;1474;51.460;7.150;2023-04-03T00:02:59;2.10;99.90
2929;DHT22;1474;51.460;7.150;2023-04-03T00:05:24;2.10;99.90
2929;DHT22;1474;51.460;7.150;2023-04-03T00:07:51;2.10;99.90
2929;DHT22;1474;51.460;7.150;2023-04-03T00:10:17;2.00;99.90
2929;DHT22;1474;51.460;7.150;2023-04-03T00:12:42;2.00;99.90
2929;DHT22;1474;51.460;7.150;2023-04-03T00:15:08;2.00;99.90
2929;DHT22;1474;51.460;7.150;2023-04-03T00:17:34;2.00;99.90
2929;DHT22;1474;51.460;7.150;2023-04-03T00:20:01;1.90;99.90
2929;DHT22;1474;51.460;7.150;2023-04-03T00:22:28;1.90;99.90
2929;DHT22;1474;51.460;7.150;2023-04-03T00:24:55;1.90;99.90
2929;DHT22;1474;51.460;7.150;2023-04-03T00:27:22;1.90;99.90
2929;DHT22;1474;51.460;7.150;2023-04-03T00:29:49;1.80;99.90
2929;DHT22;1474;51.460;7.150;2023-04-03T00:32:16;1.80;99.90
2929;DHT22;1474;51.460;7.150;2023-04-03T00:34:43;1.80;99.90
2929;DHT22;1474;51.460;7.150;2023-04-03T00:37:09;1.70;99.90
2929;DHT22;1474;51.460;7.150;2023-04-03T00:39:35;1.70;99.90
2929;DHT22;1474;51.460;7.150;2023-04-03T00:42:01;1.70;99.90
2929;DHT22;1474;51.460;7.150;2023-04-03T00:47:00;1.60;99.90
2929;DHT22;1474;51.460;7.150;2023-04-03T00:49:28;1.60;99.90
2929;DHT22;1474;51.460;7.150;2023-04-03T00:51:54;1.60;99.90
2929;DHT22;1474;51.460;7.150;2023-04-03T00:54:21;1.60;99.90
2929;DHT22;1474;51.460;7.150;2023-04-03T00:56:47;1.60;99.90
2929;DHT22;1474;51.460;7.150;2023-04-03T00:59:16;1.60;99.90
2929;DHT22;1474;51.460;7.150;2023-04-03T01:01:44;1.60;99.90
2929;DHT22;1474;51.460;7.150;2023-04-03T01:07:02;1.50;99.90
2929;DHT22;1474;51.460;7.150;2023-04-03T01:09:30;1.50;99.90
2929;DHT22;1474;51.460;7.150;2023-04-03T01:12:20;1.50;99.90
2929;DHT22;1474;51.460;7.150;2023-04-03T01:14:49;1.40;99.90
2929;DHT22;1474;51.460;7.150;2023-04-03T01:17:29;1.40;99.90
2929;DHT22;1474;51.460;7.150;2023-04-03T01:25:44;1.30;99.90
2929;DHT22;1474;51.460;7.150;2023-04-03T01:28:34;1.40;99.90
2929;DHT22;1474;51.460;7.150;2023-04-03T01:33:43;1.40;99.90
2929;DHT22;1474;51.460;7.150;2023-04-03T01:36:10;1.40;99.90
2929;DHT22;1474;51.460;7.150;2023-04-03T01:38:38;1.40;99.90
2929;DHT22;1474;51.460;7.150;2023-04-03T01:41:04;1.40;99.90
2929;DHT22;1474;51.460;7.150;2023-04-03T01:43:29;1.40;99.90
2929;DHT22;1474;51.460;7.150;2023-04-03T01:45:55;1.40;99.90
2929;DHT22;1474;51.460;7.150;2023-04-03T01:48:21;1.50;99.90
2929;DHT22;1474;51.460;7.150;2023-04-03T01:50:47;1.50;99.90
2929;DHT22;1474;51.460;7.150;2023-04-03T01:53:13;1.50;99.90
2929;DHT22;1474;51.460;7.150;2023-04-03T01:55:38;1.50;99.90
2929;DHT22;1474;51.460;7.150;2023-04-03T01:58:04;1.50;99.90
2929;DHT22;1474;51.460;7.150;2023-04-03T02:00:30;1.60;99.90
2929;DHT22;1474;51.460;7.150;2023-04-03T02:02:56;1.60;99.90
2929;DHT22;1474;51.460;7.150;2023-04-03T02:05:22;1.60;99.90
2929;DHT22;1474;51.460;7.150;2023-04-03T02:07:48;1.60;99.90
2929;DHT22;1474;51.460;7.150;2023-04-03T02:10:13;1.60;99.90
2929;DHT22;1474;51.460;7.150;2023-04-03T02:12:39;1.60;99.90
2929;DHT22;1474;51.460;7.150;2023-04-03T02:15:05;1.60;99.90
2929;DHT22;1474;51.460;7.150;2023-04-03T02:17:31;1.70;99.90
2929;DHT22;1474;51.460;7.150;2023-04-03T02:19:56;1.60;99.90
2929;DHT22;1474;51.460;7.150;2023-04-03T02:22:22;1.60;99.90
2929;DHT22;1474;51.460;7.150;2023-04-03T02:24:47;1.60;99.90
2929;DHT22;1474;51.460;7.150;2023-04-03T02:27:13;1.60;99.90
2929;DHT22;1474;51.460;7.150;2023-04-03T02:29:40;1.60;99.90
2929;DHT22;1474;51.460;7.150;2023-04-03T02:32:05;1.60;99.90
2929;DHT22;1474;51.460;7.150;2023-04-03T02:34:31;1.60;99.90
2929;DHT22;1474;51.460;7.150;2023-04-03T02:36:56;1.60;99.90
2929;DHT22;1474;51.460;7.150;2023-04-03T02:39:22;1.60;99.90
2929;DHT22;1474;51.460;7.150;2023-04-03T02:41:48;1.60;99.90
2929;DHT22;1474;51.460;7.150;2023-04-03T02:44:13;1.60;99.90
2929;DHT22;1474;51.460;7.150;2023-04-03T02:46:39;1.60;99.90
2929;DHT22;1474;51.460;7.150;2023-04-03T02:49:05;1.50;99.90
2929;DHT22;1474;51.460;7.150;2023-04-03T02:51:31;1.50;99.90
2929;DHT22;1474;51.460;7.150;2023-04-03T02:53:56;1.50;99.90
2929;DHT22;1474;51.460;7.150;2023-04-03T02:56:22;1.50;99.90
2929;DHT22;1474;51.460;7.150;2023-04-03T02:58:48;1.50;99.90
2929;DHT22;1474;51.460;7.150;2023-04-03T03:01:14;1.50;99.90
2929;DHT22;1474;51.460;7.150;2023-04-03T03:03:39;1.50;99.90
2929;DHT22;1474;51.460;7.150;2023-04-03T03:06:07;1.50;99.90
2929;DHT22;1474;51.460;7.150;2023-04-03T03:08:33;1.50;99.90
2929;DHT22;1474;51.460;7.150;2023-04-03T03:10:59;1.50;99.90
2929;DHT22;1474;51.460;7.150;2023-04-03T03:13:25;1.50;99.90
2929;DHT22;1474;51.460;7.150;2023-04-03T03:15:51;1.40;99.90
2929;DHT22;1474;51.460;7.150;2023-04-03T03:18:17;1.40;99.90
2929;DHT22;1474;51.460;7.150;2023-04-03T03:20:43;1.40;99.90
2929;DHT22;1474;51.460;7.150;2023-04-03T03:23:09;1.40;99.90
2929;DHT22;1474;51.460;7.150;2023-04-03T03:25:41;1.40;99.90
2929;DHT22;1474;51.460;7.150;2023-04-03T03:28:07;1.40;99.90
2929;DHT22;1474;51.460;7.150;2023-04-03T03:30:32;1.40;99.90
2929;DHT22;1474;51.460;7.150;2023-04-03T03:32:58;1.30;99.90
2929;DHT22;1474;51.460;7.150;2023-04-03T03:35:24;1.30;99.90
2929;DHT22;1474;51.460;7.150;2023-04-03T03:37:50;1.30;99.90
2929;DHT22;1474;51.460;7.150;2023-04-03T03:40:16;1.30;99.90
2929;DHT22;1474;51.460;7.150;2023-04-03T03:42:41;1.30;99.90
2929;DHT22;1474;51.460;7.150;2023-04-03T03:45:08;1.30;99.90
2929;DHT22;1474;51.460;7.150;2023-04-03T03:47:34;1.30;99.90
2929;DHT22;1474;51.460;7.150;2023-04-03T03:52:26;1.30;99.90
2929;DHT22;1474;51.460;7.150;2023-04-03T03:54:51;1.30;99.90
2929;DHT22;1474;51.460;7.150;2023-04-03T03:57:17;1.30;99.90
2929;DHT22;1474;51.460;7.150;2023-04-03T03:59:43;1.30;99.90
2929;DHT22;1474;51.460;7.150;2023-04-03T04:02:10;1.20;99.90
2929;DHT22;1474;51.460;7.150;2023-04-03T04:04:36;1.20;99.90
2929;DHT22;1474;51.460;7.150;2023-04-03T04:07:02;1.20;99.90
2929;DHT22;1474;51.460;7.150;2023-04-03T04:09:28;1.20;99.90
2929;DHT22;1474;51.460;7.150;2023-04-03T04:11:53;1.20;99.90
2929;DHT22;1474;51.460;7.150;2023-04-03T04:14:19;1.20;99.90
2929;DHT22;1474;51.460;7.150;2023-04-03T04:16:46;1.20;99.90
2929;DHT22;1474;51.460;7.150;2023-04-03T04:19:12;1.10;99.90
2929;DHT22;1474;51.460;7.150;2023-04-03T04:21:38;1.10;99.90
2929;DHT22;1474;51.460;7.150;2023-04-03T04:24:05;1.10;99.90
2929;DHT22;1474;51.460;7.150;2023-04-03T04:26:30;1.10;99.90
2929;DHT22;1474;51.460;7.150;2023-04-03T04:28:56;1.10;99.90
2929;DHT22;1474;51.460;7.150;2023-04-03T04:31:22;1.10;99.90
2929;DHT22;1474;51.460;7.150;2023-04-03T04:33:47;1.10;99.90
2929;DHT22;1474;51.460;7.150;2023-04-03T04:36:13;1.10;99.90
2929;DHT22;1474;51.460;7.150;2023-04-03T04:38:40;1.00;99.90
2929;DHT22;1474;51.460;7.150;2023-04-03T04:41:06;1.00;99.90
2929;DHT22;1474;51.460;7.150;2023-04-03T04:43:32;1.00;99.90
2929;DHT22;1474;51.460;7.150;2023-04-03T04:46:08;1.00;99.90
2929;DHT22;1474;51.460;7.150;2023-04-03T04:48:35;1.00;99.90
2929;DHT22;1474;51.460;7.150;2023-04-03T04:51:01;1.00;99.90
2929;DHT22;1474;51.460;7.150;2023-04-03T04:53:27;1.00;99.90
2929;DHT22;1474;51.460;7.150;2023-04-03T04:55:53;1.00;99.90
2929;DHT22;1474;51.460;7.150;2023-04-03T04:58:19;1.00;99.90
2929;DHT22;1474;51.460;7.150;2023-04-03T05:00:45;1.00;99.90
2929;DHT22;1474;51.460;7.150;2023-04-03T05:03:11;1.00;99.90
2929;DHT22;1474;51.460;7.150;2023-04-03T05:05:37;1.00;99.90
2929;DHT22;1474;51.460;7.150;2023-04-03T05:08:04;1.00;99.90
2929;DHT22;1474;51.460;7.150;2023-04-03T05:10:30;1.00;99.90
2929;DHT22;1474;51.460;7.150;2023-04-03T05:12:56;1.00;99.90
2929;DHT22;1474;51.460;7.150;2023-04-03T05:15:22;1.00;99.90
2929;DHT22;1474;51.460;7.150;2023-04-03T05:17:48;1.00;99.90
2929;DHT22;1474;51.460;7.150;2023-04-03T05:20:14;1.00;99.90
2929;DHT22;1474;51.460;7.150;2023-04-03T05:22:40;1.00;99.90
2929;DHT22;1474;51.460;7.150;2023-04-03T05:25:06;0.90;99.90
2929;DHT22;1474;51.460;7.150;2023-04-03T05:27:32;1.00;99.90
2929;DHT22;1474;51.460;7.150;2023-04-03T05:29:57;1.00;99.90
2929;DHT22;1474;51.460;7.150;2023-04-03T05:32:24;1.00;99.90
2929;DHT22;1474;51.460;7.150;2023-04-03T05:34:50;1.00;99.90
2929;DHT22;1474;51.460;7.150;2023-04-03T05:37:17;1.00;99.90
2929;DHT22;1474;51.460;7.150;2023-04-03T05:39:42;1.00;99.90
2929;DHT22;1474;51.460;7.150;2023-04-03T05:42:08;1.10;99.90
2929;DHT22;1474;51.460;7.150;2023-04-03T05:44:34;1.10;99.90
2929;DHT22;1474;51.460;7.150;2023-04-03T05:47:00;1.10;99.90
2929;DHT22;1474;51.460;7.150;2023-04-03T05:49:26;1.10;99.90
2929;DHT22;1474;51.460;7.150;2023-04-03T05:51:51;1.10;99.90
2929;DHT22;1474;51.460;7.150;2023-04-03T05:54:29;1.10;99.90
2929;DHT22;1474;51.460;7.150;2023-04-03T05:56:55;1.10;99.90
2929;DHT22;1474;51.460;7.150;2023-04-03T05:59:21;1.20;99.90
2929;DHT22;1474;51.460;7.150;2023-04-03T06:01:47;1.20;99.90
2929;DHT22;1474;51.460;7.150;2023-04-03T06:04:13;1.30;99.90
2929;DHT22;1474;51.460;7.150;2023-04-03T06:06:48;1.30;99.90
2929;DHT22;1474;51.460;7.150;2023-04-03T06:09:15;1.30;99.90
2929;DHT22;1474;51.460;7.150;2023-04-03T06:11:42;1.40;99.90
2929;DHT22;1474;51.460;7.150;2023-04-03T06:14:08;1.50;99.90
2929;DHT22;1474;51.460;7.150;2023-04-03T06:16:34;1.60;99.90
2929;DHT22;1474;51.460;7.150;2023-04-03T06:18:59;1.60;99.90
2929;DHT22;1474;51.460;7.150;2023-04-03T06:21:26;1.60;99.90
2929;DHT22;1474;51.460;7.150;2023-04-03T06:23:52;1.70;99.90
2929;DHT22;1474;51.460;7.150;2023-04-03T06:26:17;1.80;99.90
2929;DHT22;1474;51.460;7.150;2023-04-03T06:28:43;1.80;99.90
2929;DHT22;1474;51.460;7.150;2023-04-03T06:31:09;1.90;99.90
2929;DHT22;1474;51.460;7.150;2023-04-03T06:33:35;2.00;99.90
2929;DHT22;1474;51.460;7.150;2023-04-03T06:36:04;2.10;99.90
2929;DHT22;1474;51.460;7.150;2023-04-03T06:38:30;2.10;99.90
2929;DHT22;1474;51.460;7.150;2023-04-03T06:40:55;2.10;99.90
2929;DHT22;1474;51.460;7.150;2023-04-03T06:43:21;2.20;99.90
2929;DHT22;1474;51.460;7.150;2023-04-03T06:45:47;2.20;99.90
2929;DHT22;1474;51.460;7.150;2023-04-03T06:48:13;2.20;99.90
2929;DHT22;1474;51.460;7.150;2023-04-03T06:50:39;2.30;99.90
2929;DHT22;1474;51.460;7.150;2023-04-03T06:53:04;2.30;99.90
2929;DHT22;1474;51.460;7.150;2023-04-03T06:55:31;2.40;99.90
2929;DHT22;1474;51.460;7.150;2023-04-03T06:57:57;2.40;99.90
2929;DHT22;1474;51.460;7.150;2023-04-03T07:00:22;2.50;99.90
2929;DHT22;1474;51.460;7.150;2023-04-03T07:02:48;2.50;99.90
2929;DHT22;1474;51.460;7.150;2023-04-03T07:05:14;2.60;99.90
2929;DHT22;1474;51.460;7.150;2023-04-03T07:07:39;2.60;99.90
2929;DHT22;1474;51.460;7.150;2023-04-03T07:10:07;2.70;99.90
2929;DHT22;1474;51.460;7.150;2023-04-03T07:12:33;2.80;99.90
2929;DHT22;1474;51.460;7.150;2023-04-03T07:14:59;2.80;99.90
2929;DHT22;1474;51.460;7.150;2023-04-03T07:17:24;3.00;99.90
2929;DHT22;1474;51.460;7.150;2023-04-03T07:19:51;3.00;99.90
2929;DHT22;1474;51.460;7.150;2023-04-03T07:22:17;3.10;99.90
2929;DHT22;1474;51.460;7.150;2023-04-03T07:24:43;3.10;99.90
2929;DHT22;1474;51.460;7.150;2023-04-03T07:27:09;3.10;99.90
2929;DHT22;1474;51.460;7.150;2023-04-03T07:29:35;3.20;99.90
2929;DHT22;1474;51.460;7.150;2023-04-03T07:32:02;3.30;99.90
2929;DHT22;1474;51.460;7.150;2023-04-03T07:34:28;3.40;99.90
2929;DHT22;1474;51.460;7.150;2023-04-03T07:36:53;3.50;99.90
2929;DHT22;1474;51.460;7.150;2023-04-03T07:39:19;3.60;99.90
2929;DHT22;1474;51.460;7.150;2023-04-03T07:41:45;3.60;99.90
2929;DHT22;1474;51.460;7.150;2023-04-03T07:44:11;3.70;99.90
2929;DHT22;1474;51.460;7.150;2023-04-03T07:46:37;3.90;99.90
2929;DHT22;1474;51.460;7.150;2023-04-03T07:49:03;3.90;99.90
2929;DHT22;1474;51.460;7.150;2023-04-03T07:51:28;4.00;99.90
2929;DHT22;1474;51.460;7.150;2023-04-03T07:53:55;4.00;99.90
2929;DHT22;1474;51.460;7.150;2023-04-03T07:56:21;4.20;99.90
2929;DHT22;1474;51.460;7.150;2023-04-03T07:58:46;4.30;99.90
2929;DHT22;1474;51.460;7.150;2023-04-03T08:01:12;4.30;99.90
2929;DHT22;1474;51.460;7.150;2023-04-03T08:03:38;4.40;99.90
2929;DHT22;1474;51.460;7.150;2023-04-03T08:06:06;4.40;99.90
2929;DHT22;1474;51.460;7.150;2023-04-03T08:08:33;4.40;99.90
2929;DHT22;1474;51.460;7.150;2023-04-03T08:11:00;4.40;99.90
2929;DHT22;1474;51.460;7.150;2023-04-03T08:13:26;4.50;99.90
2929;DHT22;1474;51.460;7.150;2023-04-03T08:15:52;4.70;99.90
2929;DHT22;1474;51.460;7.150;2023-04-03T08:18:17;4.90;99.90
2929;DHT22;1474;51.460;7.150;2023-04-03T08:20:46;4.80;99.90
2929;DHT22;1474;51.460;7.150;2023-04-03T08:23:12;4.70;99.90
2929;DHT22;1474;51.460;7.150;2023-04-03T08:25:39;4.80;99.90
2929;DHT22;1474;51.460;7.150;2023-04-03T08:28:06;4.90;99.90
2929;DHT22;1474;51.460;7.150;2023-04-03T08:30:32;5.00;99.90
2929;DHT22;1474;51.460;7.150;2023-04-03T08:33:00;5.20;99.90
2929;DHT22;1474;51.460;7.150;2023-04-03T08:35:26;5.30;99.90
2929;DHT22;1474;51.460;7.150;2023-04-03T08:37:52;5.20;99.90
2929;DHT22;1474;51.460;7.150;2023-04-03T08:40:17;5.20;99.90
2929;DHT22;1474;51.460;7.150;2023-04-03T08:45:19;5.50;99.90
2929;DHT22;1474;51.460;7.150;2023-04-03T08:48:21;5.70;99.90
2929;DHT22;1474;51.460;7.150;2023-04-03T08:50:54;5.70;99.90
2929;DHT22;1474;51.460;7.150;2023-04-03T08:53:25;5.60;99.90
2929;DHT22;1474;51.460;7.150;2023-04-03T08:55:54;5.60;99.90
2929;DHT22;1474;51.460;7.150;2023-04-03T08:58:28;5.80;99.90
2929;DHT22;1474;51.460;7.150;2023-04-03T09:01:02;6.00;99.90
2929;DHT22;1474;51.460;7.150;2023-04-03T09:03:36;6.30;99.90
2929;DHT22;1474;51.460;7.150;2023-04-03T09:06:04;6.30;99.90
2929;DHT22;1474;51.460;7.150;2023-04-03T09:09:04;6.20;99.90
2929;DHT22;1474;51.460;7.150;2023-04-03T09:11:44;6.20;99.90
2929;DHT22;1474;51.460;7.150;2023-04-03T09:16:59;6.60;99.90
2929;DHT22;1474;51.460;7.150;2023-04-03T09:22:41;6.80;99.90
2929;DHT22;1474;51.460;7.150;2023-04-03T09:27:33;6.80;99.90
2929;DHT22;1474;51.460;7.150;2023-04-03T09:29:58;6.90;99.90
2929;DHT22;1474;51.460;7.150;2023-04-03T09:32:31;6.90;99.90
2929;DHT22;1474;51.460;7.150;2023-04-03T09:35:03;7.00;98.80
2929;DHT22;1474;51.460;7.150;2023-04-03T09:37:37;7.20;99.90
2929;DHT22;1474;51.460;7.150;2023-04-03T09:40:04;7.40;96.90
2929;DHT22;1474;51.460;7.150;2023-04-03T09:42:30;7.40;96.70
2929;DHT22;1474;51.460;7.150;2023-04-03T09:45:00;7.40;99.10
2929;DHT22;1474;51.460;7.150;2023-04-03T09:47:36;7.60;99.60
2929;DHT22;1474;51.460;7.150;2023-04-03T09:52:41;8.00;95.70
2929;DHT22;1474;51.460;7.150;2023-04-03T09:57:39;7.60;93.40
2929;DHT22;1474;51.460;7.150;2023-04-03T10:00:05;7.40;98.80
2929;DHT22;1474;51.460;7.150;2023-04-03T10:02:39;7.20;94.90
2929;DHT22;1474;51.460;7.150;2023-04-03T10:08:10;7.50;98.40
2929;DHT22;1474;51.460;7.150;2023-04-03T10:10:37;7.60;96.60
2929;DHT22;1474;51.460;7.150;2023-04-03T10:13:11;7.90;95.60
2929;DHT22;1474;51.460;7.150;2023-04-03T10:15:45;8.10;99.30
2929;DHT22;1474;51.460;7.150;2023-04-03T10:18:42;8.20;95.80
2929;DHT22;1474;51.460;7.150;2023-04-03T10:24:10;8.10;93.70
2929;DHT22;1474;51.460;7.150;2023-04-03T10:26:39;8.00;95.80
2929;DHT22;1474;51.460;7.150;2023-04-03T10:29:25;8.10;99.50
2929;DHT22;1474;51.460;7.150;2023-04-03T10:35:23;8.00;95.90
2929;DHT22;1474;51.460;7.150;2023-04-03T10:41:04;8.20;97.20
2929;DHT22;1474;51.460;7.150;2023-04-03T10:46:38;8.40;96.60
2929;DHT22;1474;51.460;7.150;2023-04-03T10:49:22;8.60;95.80
2929;DHT22;1474;51.460;7.150;2023-04-03T10:57:40;8.80;94.30
2929;DHT22;1474;51.460;7.150;2023-04-03T11:00:14;8.60;94.20
2929;DHT22;1474;51.460;7.150;2023-04-03T11:03:05;8.50;97.30
2929;DHT22;1474;51.460;7.150;2023-04-03T11:05:47;8.60;94.10
2929;DHT22;1474;51.460;7.150;2023-04-03T11:08:24;8.80;94.60
2929;DHT22;1474;51.460;7.150;2023-04-03T11:10:55;8.70;92.90
2929;DHT22;1474;51.460;7.150;2023-04-03T11:13:46;8.60;94.60
2929;DHT22;1474;51.460;7.150;2023-04-03T11:16:18;8.70;93.10
2929;DHT22;1474;51.460;7.150;2023-04-03T11:21:31;8.90;93.40
2929;DHT22;1474;51.460;7.150;2023-04-03T11:24:03;8.80;92.50
2929;DHT22;1474;51.460;7.150;2023-04-03T11:26:36;8.50;93.90
2929;DHT22;1474;51.460;7.150;2023-04-03T11:29:08;8.50;92.40
2929;DHT22;1474;51.460;7.150;2023-04-03T11:34:39;9.20;93.20
2929;DHT22;1474;51.460;7.150;2023-04-03T11:37:16;9.20;91.60
2929;DHT22;1474;51.460;7.150;2023-04-03T11:40:00;9.30;91.90
2929;DHT22;1474;51.460;7.150;2023-04-03T11:47:50;8.60;90.40
2929;DHT22;1474;51.460;7.150;2023-04-03T11:50:43;8.60;90.60
2929;DHT22;1474;51.460;7.150;2023-04-03T11:58:27;8.70;89.30
2929;DHT22;1474;51.460;7.150;2023-04-03T12:00:55;8.70;90.60
2929;DHT22;1474;51.460;7.150;2023-04-03T12:05:55;8.90;93.20
2929;DHT22;1474;51.460;7.150;2023-04-03T12:16:24;9.10;93.50
2929;DHT22;1474;51.460;7.150;2023-04-03T12:29:29;8.80;91.90
2929;DHT22;1474;51.460;7.150;2023-04-03T12:41:14;9.10;88.60
2929;DHT22;1474;51.460;7.150;2023-04-03T12:44:07;9.20;91.10
2929;DHT22;1474;51.460;7.150;2023-04-03T12:46:44;9.30;83.10
2929;DHT22;1474;51.460;7.150;2023-04-03T12:51:54;9.10;90.40
2929;DHT22;1474;51.460;7.150;2023-04-03T12:54:36;9.00;89.90
2929;DHT22;1474;51.460;7.150;2023-04-03T12:57:10;9.00;81.90
2929;DHT22;1474;51.460;7.150;2023-04-03T12:59:36;8.80;89.70
2929;DHT22;1474;51.460;7.150;2023-04-03T13:02:02;9.00;88.40
2929;DHT22;1474;51.460;7.150;2023-04-03T13:04:30;9.20;88.00
2929;DHT22;1474;51.460;7.150;2023-04-03T13:06:56;9.30;90.20
2929;DHT22;1474;51.460;7.150;2023-04-03T13:09:24;9.30;85.70
2929;DHT22;1474;51.460;7.150;2023-04-03T13:12:11;9.30;85.00
2929;DHT22;1474;51.460;7.150;2023-04-03T13:14:37;9.30;85.30
2929;DHT22;1474;51.460;7.150;2023-04-03T13:17:10;9.20;85.30
2929;DHT22;1474;51.460;7.150;2023-04-03T13:19:38;9.10;84.00
2929;DHT22;1474;51.460;7.150;2023-04-03T13:22:07;9.00;88.90
2929;DHT22;1474;51.460;7.150;2023-04-03T13:24:38;9.00;87.60
2929;DHT22;1474;51.460;7.150;2023-04-03T13:27:05;9.20;82.90
2929;DHT22;1474;51.460;7.150;2023-04-03T13:29:37;9.10;90.40
2929;DHT22;1474;51.460;7.150;2023-04-03T13:32:04;9.20;88.40
2929;DHT22;1474;51.460;7.150;2023-04-03T13:34:42;9.10;90.20
2929;DHT22;1474;51.460;7.150;2023-04-03T13:40:03;9.50;87.00
2929;DHT22;1474;51.460;7.150;2023-04-03T13:42:38;9.40;86.00
2929;DHT22;1474;51.460;7.150;2023-04-03T13:45:22;9.30;87.10
2929;DHT22;1474;51.460;7.150;2023-04-03T13:47:50;9.20;90.00
2929;DHT22;1474;51.460;7.150;2023-04-03T13:50:22;9.40;86.30
2929;DHT22;1474;51.460;7.150;2023-04-03T13:52:59;9.20;90.10
2929;DHT22;1474;51.460;7.150;2023-04-03T13:55:30;9.30;90.80
2929;DHT22;1474;51.460;7.150;2023-04-03T14:00:39;9.30;87.60
2929;DHT22;1474;51.460;7.150;2023-04-03T14:03:14;9.30;91.20
2929;DHT22;1474;51.460;7.150;2023-04-03T14:05:43;9.50;91.10
2929;DHT22;1474;51.460;7.150;2023-04-03T14:08:11;9.60;92.50
2929;DHT22;1474;51.460;7.150;2023-04-03T14:10:37;9.70;86.30
2929;DHT22;1474;51.460;7.150;2023-04-03T14:13:02;9.50;85.50
2929;DHT22;1474;51.460;7.150;2023-04-03T14:15:30;9.40;82.10
2929;DHT22;1474;51.460;7.150;2023-04-03T14:17:56;9.10;88.20
2929;DHT22;1474;51.460;7.150;2023-04-03T14:20:25;9.10;90.90
2929;DHT22;1474;51.460;7.150;2023-04-03T14:22:51;9.20;90.70
2929;DHT22;1474;51.460;7.150;2023-04-03T14:25:19;9.30;87.60
2929;DHT22;1474;51.460;7.150;2023-04-03T14:27:47;9.20;87.10
2929;DHT22;1474;51.460;7.150;2023-04-03T14:30:18;9.20;90.70
2929;DHT22;1474;51.460;7.150;2023-04-03T14:32:44;9.30;87.80
2929;DHT22;1474;51.460;7.150;2023-04-03T14:35:10;9.20;89.90
2929;DHT22;1474;51.460;7.150;2023-04-03T14:37:36;9.20;84.30
2929;DHT22;1474;51.460;7.150;2023-04-03T14:40:04;9.10;84.90
2929;DHT22;1474;51.460;7.150;2023-04-03T14:42:32;9.10;88.70
2929;DHT22;1474;51.460;7.150;2023-04-03T14:45:00;9.00;90.50
2929;DHT22;1474;51.460;7.150;2023-04-03T14:47:28;9.00;90.30
2929;DHT22;1474;51.460;7.150;2023-04-03T14:49:54;9.10;86.60
2929;DHT22;1474;51.460;7.150;2023-04-03T14:52:25;9.20;90.00
2929;DHT22;1474;51.460;7.150;2023-04-03T14:54:51;9.20;86.50
2929;DHT22;1474;51.460;7.150;2023-04-03T14:57:18;9.10;89.30
2929;DHT22;1474;51.460;7.150;2023-04-03T14:59:45;9.10;90.20
2929;DHT22;1474;51.460;7.150;2023-04-03T15:02:33;9.20;90.20
2929;DHT22;1474;51.460;7.150;2023-04-03T15:05:01;9.40;91.80
2929;DHT22;1474;51.460;7.150;2023-04-03T15:07:31;9.40;87.20
2929;DHT22;1474;51.460;7.150;2023-04-03T15:10:00;9.40;91.90
2929;DHT22;1474;51.460;7.150;2023-04-03T15:12:27;9.30;89.60
2929;DHT22;1474;51.460;7.150;2023-04-03T15:14:52;9.30;90.80
2929;DHT22;1474;51.460;7.150;2023-04-03T15:17:21;9.40;90.70
2929;DHT22;1474;51.460;7.150;2023-04-03T15:19:47;9.30;88.30
2929;DHT22;1474;51.460;7.150;2023-04-03T15:22:15;9.40;89.20
2929;DHT22;1474;51.460;7.150;2023-04-03T15:24:41;9.30;86.10
2929;DHT22;1474;51.460;7.150;2023-04-03T15:27:07;9.10;88.90
2929;DHT22;1474;51.460;7.150;2023-04-03T15:29:32;9.00;90.60
2929;DHT22;1474;51.460;7.150;2023-04-03T15:31:58;9.00;90.60
2929;DHT22;1474;51.460;7.150;2023-04-03T15:34:23;9.10;89.00
2929;DHT22;1474;51.460;7.150;2023-04-03T15:36:50;9.00;86.70
2929;DHT22;1474;51.460;7.150;2023-04-03T15:39:17;8.90;88.10
2929;DHT22;1474;51.460;7.150;2023-04-03T15:41:44;8.80;88.80
2929;DHT22;1474;51.460;7.150;2023-04-03T15:44:10;8.90;89.90
2929;DHT22;1474;51.460;7.150;2023-04-03T15:46:37;8.80;88.80
2929;DHT22;1474;51.460;7.150;2023-04-03T15:49:04;8.80;88.70
2929;DHT22;1474;51.460;7.150;2023-04-03T15:51:30;8.80;91.30
2929;DHT22;1474;51.460;7.150;2023-04-03T15:53:56;8.80;90.90
2929;DHT22;1474;51.460;7.150;2023-04-03T15:56:21;8.80;89.20
2929;DHT22;1474;51.460;7.150;2023-04-03T15:58:47;8.70;91.80
2929;DHT22;1474;51.460;7.150;2023-04-03T16:01:13;8.60;90.80
2929;DHT22;1474;51.460;7.150;2023-04-03T16:03:40;8.50;91.60
2929;DHT22;1474;51.460;7.150;2023-04-03T16:06:11;8.40;92.40
2929;DHT22;1474;51.460;7.150;2023-04-03T16:08:37;8.40;92.70
2929;DHT22;1474;51.460;7.150;2023-04-03T16:11:03;8.40;92.90
2929;DHT22;1474;51.460;7.150;2023-04-03T16:13:28;8.30;91.20
2929;DHT22;1474;51.460;7.150;2023-04-03T16:15:55;8.20;92.00
2929;DHT22;1474;51.460;7.150;2023-04-03T16:18:20;8.10;91.00
2929;DHT22;1474;51.460;7.150;2023-04-03T16:20:46;8.00;90.80
2929;DHT22;1474;51.460;7.150;2023-04-03T16:23:12;8.00;92.10
2929;DHT22;1474;51.460;7.150;2023-04-03T16:25:38;7.90;90.40
2929;DHT22;1474;51.460;7.150;2023-04-03T16:28:04;7.90;90.60
2929;DHT22;1474;51.460;7.150;2023-04-03T16:30:30;7.90;91.70
2929;DHT22;1474;51.460;7.150;2023-04-03T16:32:56;7.80;91.70
2929;DHT22;1474;51.460;7.150;2023-04-03T16:35:22;7.80;92.40
2929;DHT22;1474;51.460;7.150;2023-04-03T16:37:48;7.90;92.80
2929;DHT22;1474;51.460;7.150;2023-04-03T16:40:14;7.80;92.50
2929;DHT22;1474;51.460;7.150;2023-04-03T16:42:40;7.80;91.50
2929;DHT22;1474;51.460;7.150;2023-04-03T16:45:06;7.80;92.60
2929;DHT22;1474;51.460;7.150;2023-04-03T16:47:32;7.70;92.90
2929;DHT22;1474;51.460;7.150;2023-04-03T16:49:58;7.80;93.10
2929;DHT22;1474;51.460;7.150;2023-04-03T16:52:24;7.70;92.00
2929;DHT22;1474;51.460;7.150;2023-04-03T16:54:50;7.60;92.90
2929;DHT22;1474;51.460;7.150;2023-04-03T16:57:21;7.60;93.60
2929;DHT22;1474;51.460;7.150;2023-04-03T16:59:46;7.50;93.30
2929;DHT22;1474;51.460;7.150;2023-04-03T17:02:12;7.40;93.50
2929;DHT22;1474;51.460;7.150;2023-04-03T17:04:38;7.40;92.70
2929;DHT22;1474;51.460;7.150;2023-04-03T17:07:03;7.30;93.40
2929;DHT22;1474;51.460;7.150;2023-04-03T17:09:32;7.20;93.70
2929;DHT22;1474;51.460;7.150;2023-04-03T17:11:58;7.20;94.20
2929;DHT22;1474;51.460;7.150;2023-04-03T17:14:24;7.20;93.30
2929;DHT22;1474;51.460;7.150;2023-04-03T17:16:49;7.10;94.10
2929;DHT22;1474;51.460;7.150;2023-04-03T17:19:15;7.10;92.00
2929;DHT22;1474;51.460;7.150;2023-04-03T17:21:43;7.00;92.80
2929;DHT22;1474;51.460;7.150;2023-04-03T17:24:10;6.90;92.10
2929;DHT22;1474;51.460;7.150;2023-04-03T17:26:39;6.90;93.20
2929;DHT22;1474;51.460;7.150;2023-04-03T17:29:05;6.90;92.80
2929;DHT22;1474;51.460;7.150;2023-04-03T17:31:31;6.80;94.40
2929;DHT22;1474;51.460;7.150;2023-04-03T17:33:57;6.80;94.80
2929;DHT22;1474;51.460;7.150;2023-04-03T17:36:22;6.80;94.60
2929;DHT22;1474;51.460;7.150;2023-04-03T17:38:50;6.80;94.40
2929;DHT22;1474;51.460;7.150;2023-04-03T17:41:16;6.70;94.90
2929;DHT22;1474;51.460;7.150;2023-04-03T17:43:41;6.70;95.40
2929;DHT22;1474;51.460;7.150;2023-04-03T17:46:10;6.60;95.70
2929;DHT22;1474;51.460;7.150;2023-04-03T17:48:38;6.60;95.00
2929;DHT22;1474;51.460;7.150;2023-04-03T17:51:10;6.60;95.10
2929;DHT22;1474;51.460;7.150;2023-04-03T17:53:36;6.60;95.40
2929;DHT22;1474;51.460;7.150;2023-04-03T17:56:09;6.50;95.20
2929;DHT22;1474;51.460;7.150;2023-04-03T17:58:35;6.50;94.80
2929;DHT22;1474;51.460;7.150;2023-04-03T18:01:21;6.40;94.80
2929;DHT22;1474;51.460;7.150;2023-04-03T18:03:47;6.40;95.40
2929;DHT22;1474;51.460;7.150;2023-04-03T18:06:17;6.40;95.40
2929;DHT22;1474;51.460;7.150;2023-04-03T18:08:46;6.30;95.40
2929;DHT22;1474;51.460;7.150;2023-04-03T18:11:13;6.30;95.30